sensor_id;sensor_type;location;lat;lon;timestamp;P1;durP1;ratioP1;P2;durP2;ratioP2
57889;SDS011;43707;50.184;18.966;2022-10-18T00:02:09;26.20;;;14.80;;
57889;SDS011;43707;50.184;18.966;2022-10-18T00:04:35;30.10;;;14.80;;
57889;SDS011;43707;50.184;18.966;2022-10-18T00:07:00;31.00;;;16.20;;
57889;SDS011;43707;50.184;18.966;2022-10-18T00:09:26;27.10;;;15.90;;
57889;SDS011;43707;50.184;18.966;2022-10-18T00:11:52;20.70;;;13.20;;
57889;SDS011;43707;50.184;18.966;2022-10-18T00:14:18;20.70;;;11.80;;
57889;SDS011;43707;50.184;18.966;2022-10-18T00:16:43;17.70;;;12.30;;
57889;SDS011;43707;50.184;18.966;2022-10-18T00:19:09;16.80;;;11.50;;
57889;SDS011;43707;50.184;18.966;2022-10-18T00:21:34;18.60;;;10.90;;
57889;SDS011;43707;50.184;18.966;2022-10-18T00:23:59;14.50;;;9.70;;
57889;SDS011;43707;50.184;18.966;2022-10-18T00:26:26;14.40;;;10.00;;
57889;SDS011;43707;50.184;18.966;2022-10-18T00:28:53;15.10;;;9.20;;
57889;SDS011;43707;50.184;18.966;2022-10-18T00:31:24;15.00;;;8.90;;
57889;SDS011;43707;50.184;18.966;2022-10-18T00:33:58;13.80;;;9.10;;
57889;SDS011;43707;50.184;18.966;2022-10-18T00:36:26;16.70;;;9.10;;
57889;SDS011;43707;50.184;18.966;2022-10-18T00:38:52;17.70;;;10.10;;
57889;SDS011;43707;50.184;18.966;2022-10-18T00:41:20;18.00;;;10.20;;
57889;SDS011;43707;50.184;18.966;2022-10-18T00:44:00;13.80;;;10.60;;
57889;SDS011;43707;50.184;18.966;2022-10-18T00:46:34;16.30;;;10.80;;
57889;SDS011;43707;50.184;18.966;2022-10-18T00:49:24;12.90;;;10.40;;
57889;SDS011;43707;50.184;18.966;2022-10-18T00:54:21;13.30;;;8.90;;
57889;SDS011;43707;50.184;18.966;2022-10-18T00:56:47;20.70;;;10.60;;
57889;SDS011;43707;50.184;18.966;2022-10-18T00:59:14;16.90;;;11.60;;
57889;SDS011;43707;50.184;18.966;2022-10-18T01:01:40;17.70;;;11.90;;
57889;SDS011;43707;50.184;18.966;2022-10-18T01:04:06;17.00;;;11.00;;
57889;SDS011;43707;50.184;18.966;2022-10-18T01:06:31;15.60;;;9.30;;
57889;SDS011;43707;50.184;18.966;2022-10-18T01:11:37;12.10;;;7.10;;
57889;SDS011;43707;50.184;18.966;2022-10-18T01:17:07;9.90;;;7.30;;
57889;SDS011;43707;50.184;18.966;2022-10-18T01:22:38;9.30;;;6.40;;
57889;SDS011;43707;50.184;18.966;2022-10-18T01:27:56;14.10;;;6.90;;
57889;SDS011;43707;50.184;18.966;2022-10-18T01:33:04;6.90;;;6.10;;
57889;SDS011;43707;50.184;18.966;2022-10-18T01:35:59;6.20;;;5.50;;
57889;SDS011;43707;50.184;18.966;2022-10-18T01:38:26;6.90;;;5.90;;
57889;SDS011;43707;50.184;18.966;2022-10-18T01:40:54;11.50;;;8.00;;
57889;SDS011;43707;50.184;18.966;2022-10-18T01:43:20;13.60;;;8.30;;
57889;SDS011;43707;50.184;18.966;2022-10-18T01:45:47;11.50;;;7.70;;
57889;SDS011;43707;50.184;18.966;2022-10-18T01:48:13;8.90;;;6.90;;
57889;SDS011;43707;50.184;18.966;2022-10-18T01:50:39;15.90;;;7.10;;
57889;SDS011;43707;50.184;18.966;2022-10-18T01:53:04;8.80;;;5.30;;
57889;SDS011;43707;50.184;18.966;2022-10-18T01:55:32;7.30;;;5.70;;
57889;SDS011;43707;50.184;18.966;2022-10-18T01:58:25;8.00;;;5.80;;
57889;SDS011;43707;50.184;18.966;2022-10-18T02:00:59;6.00;;;5.40;;
57889;SDS011;43707;50.184;18.966;2022-10-18T02:03:29;8.90;;;5.30;;
57889;SDS011;43707;50.184;18.966;2022-10-18T02:05:58;11.90;;;6.70;;
57889;SDS011;43707;50.184;18.966;2022-10-18T02:08:32;10.90;;;7.10;;
57889;SDS011;43707;50.184;18.966;2022-10-18T02:11:01;8.90;;;6.40;;
57889;SDS011;43707;50.184;18.966;2022-10-18T02:13:30;7.80;;;6.20;;
57889;SDS011;43707;50.184;18.966;2022-10-18T02:16:36;7.20;;;6.10;;
57889;SDS011;43707;50.184;18.966;2022-10-18T02:19:21;8.00;;;5.80;;
57889;SDS011;43707;50.184;18.966;2022-10-18T02:21:51;14.60;;;6.80;;
57889;SDS011;43707;50.184;18.966;2022-10-18T02:24:18;8.40;;;5.40;;
57889;SDS011;43707;50.184;18.966;2022-10-18T02:26:45;7.60;;;5.80;;
57889;SDS011;43707;50.184;18.966;2022-10-18T02:29:11;7.70;;;5.70;;
57889;SDS011;43707;50.184;18.966;2022-10-18T02:31:44;8.50;;;6.60;;
57889;SDS011;43707;50.184;18.966;2022-10-18T02:36:59;10.10;;;7.40;;
57889;SDS011;43707;50.184;18.966;2022-10-18T02:39:29;8.60;;;6.70;;
57889;SDS011;43707;50.184;18.966;2022-10-18T02:41:59;7.80;;;5.60;;
57889;SDS011;43707;50.184;18.966;2022-10-18T02:44:26;11.10;;;6.10;;
57889;SDS011;43707;50.184;18.966;2022-10-18T02:46:51;10.20;;;6.20;;
57889;SDS011;43707;50.184;18.966;2022-10-18T02:49:17;8.70;;;5.60;;
57889;SDS011;43707;50.184;18.966;2022-10-18T02:51:42;6.60;;;5.70;;
57889;SDS011;43707;50.184;18.966;2022-10-18T02:54:08;7.20;;;5.70;;
57889;SDS011;43707;50.184;18.966;2022-10-18T02:56:33;9.30;;;5.80;;
57889;SDS011;43707;50.184;18.966;2022-10-18T02:58:59;6.80;;;6.00;;
57889;SDS011;43707;50.184;18.966;2022-10-18T03:01:25;8.70;;;7.00;;
57889;SDS011;43707;50.184;18.966;2022-10-18T03:03:51;11.30;;;7.70;;
57889;SDS011;43707;50.184;18.966;2022-10-18T03:06:17;10.50;;;7.30;;
57889;SDS011;43707;50.184;18.966;2022-10-18T03:08:42;8.20;;;7.30;;
57889;SDS011;43707;50.184;18.966;2022-10-18T03:11:08;11.60;;;7.10;;
57889;SDS011;43707;50.184;18.966;2022-10-18T03:13:33;12.00;;;8.00;;
57889;SDS011;43707;50.184;18.966;2022-10-18T03:15:59;9.30;;;6.40;;
57889;SDS011;43707;50.184;18.966;2022-10-18T03:18:25;12.50;;;7.50;;
57889;SDS011;43707;50.184;18.966;2022-10-18T03:20:50;8.50;;;7.30;;
57889;SDS011;43707;50.184;18.966;2022-10-18T03:23:16;9.20;;;6.60;;
57889;SDS011;43707;50.184;18.966;2022-10-18T03:25:41;7.70;;;6.70;;
57889;SDS011;43707;50.184;18.966;2022-10-18T03:28:07;17.70;;;8.20;;
57889;SDS011;43707;50.184;18.966;2022-10-18T03:30:32;12.60;;;9.10;;
57889;SDS011;43707;50.184;18.966;2022-10-18T03:32:58;12.40;;;9.10;;
57889;SDS011;43707;50.184;18.966;2022-10-18T03:35:24;14.80;;;8.60;;
57889;SDS011;43707;50.184;18.966;2022-10-18T03:37:49;14.50;;;8.10;;
57889;SDS011;43707;50.184;18.966;2022-10-18T03:40:15;13.00;;;9.60;;
57889;SDS011;43707;50.184;18.966;2022-10-18T03:42:40;12.60;;;7.70;;
57889;SDS011;43707;50.184;18.966;2022-10-18T03:45:06;14.20;;;8.10;;
57889;SDS011;43707;50.184;18.966;2022-10-18T03:47:31;14.10;;;7.90;;
57889;SDS011;43707;50.184;18.966;2022-10-18T03:49:57;10.30;;;8.00;;
57889;SDS011;43707;50.184;18.966;2022-10-18T03:52:22;10.20;;;7.20;;
57889;SDS011;43707;50.184;18.966;2022-10-18T03:54:48;14.30;;;8.40;;
57889;SDS011;43707;50.184;18.966;2022-10-18T03:57:13;13.40;;;8.20;;
57889;SDS011;43707;50.184;18.966;2022-10-18T03:59:39;15.00;;;8.60;;
57889;SDS011;43707;50.184;18.966;2022-10-18T04:02:04;17.40;;;8.80;;
57889;SDS011;43707;50.184;18.966;2022-10-18T04:04:29;16.00;;;10.00;;
57889;SDS011;43707;50.184;18.966;2022-10-18T04:06:55;13.50;;;9.00;;
57889;SDS011;43707;50.184;18.966;2022-10-18T04:09:20;11.00;;;7.90;;
57889;SDS011;43707;50.184;18.966;2022-10-18T04:11:48;11.90;;;8.70;;
57889;SDS011;43707;50.184;18.966;2022-10-18T04:14:14;20.90;;;12.20;;
57889;SDS011;43707;50.184;18.966;2022-10-18T04:16:39;29.30;;;17.00;;
57889;SDS011;43707;50.184;18.966;2022-10-18T04:19:05;18.40;;;10.80;;
57889;SDS011;43707;50.184;18.966;2022-10-18T04:21:30;12.20;;;8.10;;
57889;SDS011;43707;50.184;18.966;2022-10-18T04:23:56;10.50;;;7.60;;
57889;SDS011;43707;50.184;18.966;2022-10-18T04:26:21;12.20;;;7.10;;
57889;SDS011;43707;50.184;18.966;2022-10-18T04:28:47;19.20;;;8.50;;
57889;SDS011;43707;50.184;18.966;2022-10-18T04:31:12;19.10;;;13.10;;
57889;SDS011;43707;50.184;18.966;2022-10-18T04:33:37;24.40;;;16.80;;
57889;SDS011;43707;50.184;18.966;2022-10-18T04:36:03;18.80;;;14.90;;
57889;SDS011;43707;50.184;18.966;2022-10-18T04:38:29;17.80;;;12.50;;
57889;SDS011;43707;50.184;18.966;2022-10-18T04:40:55;15.90;;;10.80;;
57889;SDS011;43707;50.184;18.966;2022-10-18T04:43:21;14.60;;;9.40;;
57889;SDS011;43707;50.184;18.966;2022-10-18T04:45:46;8.80;;;6.80;;
57889;SDS011;43707;50.184;18.966;2022-10-18T04:48:13;8.90;;;7.20;;
57889;SDS011;43707;50.184;18.966;2022-10-18T04:50:39;10.20;;;8.10;;
57889;SDS011;43707;50.184;18.966;2022-10-18T04:53:04;10.70;;;9.40;;
57889;SDS011;43707;50.184;18.966;2022-10-18T04:55:30;31.10;;;15.50;;
57889;SDS011;43707;50.184;18.966;2022-10-18T04:57:55;15.50;;;11.90;;
57889;SDS011;43707;50.184;18.966;2022-10-18T05:00:20;18.50;;;13.60;;
57889;SDS011;43707;50.184;18.966;2022-10-18T05:02:46;21.10;;;13.90;;
57889;SDS011;43707;50.184;18.966;2022-10-18T05:05:11;24.00;;;13.00;;
57889;SDS011;43707;50.184;18.966;2022-10-18T05:07:37;28.20;;;17.30;;
57889;SDS011;43707;50.184;18.966;2022-10-18T05:10:03;22.30;;;14.50;;
57889;SDS011;43707;50.184;18.966;2022-10-18T05:12:28;17.40;;;12.50;;
57889;SDS011;43707;50.184;18.966;2022-10-18T05:14:54;32.60;;;15.50;;
57889;SDS011;43707;50.184;18.966;2022-10-18T05:17:19;14.90;;;10.50;;
57889;SDS011;43707;50.184;18.966;2022-10-18T05:19:45;12.60;;;8.90;;
57889;SDS011;43707;50.184;18.966;2022-10-18T05:22:10;12.70;;;8.30;;
57889;SDS011;43707;50.184;18.966;2022-10-18T05:24:36;10.00;;;7.80;;
57889;SDS011;43707;50.184;18.966;2022-10-18T05:27:01;14.60;;;9.00;;
57889;SDS011;43707;50.184;18.966;2022-10-18T05:29:27;15.20;;;9.30;;
57889;SDS011;43707;50.184;18.966;2022-10-18T05:31:52;15.90;;;11.00;;
57889;SDS011;43707;50.184;18.966;2022-10-18T05:34:18;17.00;;;12.00;;
57889;SDS011;43707;50.184;18.966;2022-10-18T05:36:45;15.50;;;9.60;;
57889;SDS011;43707;50.184;18.966;2022-10-18T05:39:11;14.90;;;11.10;;
57889;SDS011;43707;50.184;18.966;2022-10-18T05:41:36;25.70;;;14.50;;
57889;SDS011;43707;50.184;18.966;2022-10-18T05:44:02;18.40;;;11.70;;
57889;SDS011;43707;50.184;18.966;2022-10-18T05:46:28;15.40;;;10.40;;
57889;SDS011;43707;50.184;18.966;2022-10-18T05:48:54;19.70;;;11.30;;
57889;SDS011;43707;50.184;18.966;2022-10-18T05:51:19;14.10;;;9.60;;
57889;SDS011;43707;50.184;18.966;2022-10-18T05:53:45;14.40;;;10.60;;
57889;SDS011;43707;50.184;18.966;2022-10-18T05:56:10;14.80;;;9.70;;
57889;SDS011;43707;50.184;18.966;2022-10-18T05:58:36;10.40;;;8.60;;
57889;SDS011;43707;50.184;18.966;2022-10-18T06:01:02;9.20;;;7.00;;
57889;SDS011;43707;50.184;18.966;2022-10-18T06:03:28;12.50;;;8.50;;
57889;SDS011;43707;50.184;18.966;2022-10-18T06:08:33;18.30;;;10.40;;
57889;SDS011;43707;50.184;18.966;2022-10-18T06:10:59;14.00;;;10.00;;
57889;SDS011;43707;50.184;18.966;2022-10-18T06:13:30;15.50;;;9.80;;
57889;SDS011;43707;50.184;18.966;2022-10-18T06:15:56;16.80;;;9.50;;
57889;SDS011;43707;50.184;18.966;2022-10-18T06:18:21;10.10;;;7.50;;
57889;SDS011;43707;50.184;18.966;2022-10-18T06:20:47;10.10;;;7.20;;
57889;SDS011;43707;50.184;18.966;2022-10-18T06:23:12;10.20;;;7.10;;
57889;SDS011;43707;50.184;18.966;2022-10-18T06:25:38;12.60;;;7.10;;
57889;SDS011;43707;50.184;18.966;2022-10-18T06:28:04;11.60;;;6.90;;
57889;SDS011;43707;50.184;18.966;2022-10-18T06:30:30;10.00;;;7.50;;
57889;SDS011;43707;50.184;18.966;2022-10-18T06:32:58;9.80;;;7.00;;
57889;SDS011;43707;50.184;18.966;2022-10-18T06:35:24;10.30;;;6.80;;
57889;SDS011;43707;50.184;18.966;2022-10-18T06:37:50;9.70;;;5.80;;
57889;SDS011;43707;50.184;18.966;2022-10-18T06:40:15;12.10;;;6.80;;
57889;SDS011;43707;50.184;18.966;2022-10-18T06:42:41;6.40;;;5.20;;
57889;SDS011;43707;50.184;18.966;2022-10-18T06:45:06;10.20;;;6.20;;
57889;SDS011;43707;50.184;18.966;2022-10-18T06:47:32;10.80;;;6.70;;
57889;SDS011;43707;50.184;18.966;2022-10-18T06:49:58;10.20;;;5.70;;
57889;SDS011;43707;50.184;18.966;2022-10-18T06:52:23;8.90;;;5.20;;
57889;SDS011;43707;50.184;18.966;2022-10-18T06:54:50;9.70;;;5.70;;
57889;SDS011;43707;50.184;18.966;2022-10-18T06:57:16;7.90;;;4.60;;
57889;SDS011;43707;50.184;18.966;2022-10-18T06:59:41;7.90;;;5.90;;
57889;SDS011;43707;50.184;18.966;2022-10-18T07:02:08;9.50;;;5.30;;
57889;SDS011;43707;50.184;18.966;2022-10-18T07:04:36;6.30;;;4.90;;
57889;SDS011;43707;50.184;18.966;2022-10-18T07:07:01;10.90;;;5.90;;
57889;SDS011;43707;50.184;18.966;2022-10-18T07:09:27;6.80;;;4.90;;
57889;SDS011;43707;50.184;18.966;2022-10-18T07:11:52;8.30;;;6.20;;
57889;SDS011;43707;50.184;18.966;2022-10-18T07:14:18;11.40;;;5.40;;
57889;SDS011;43707;50.184;18.966;2022-10-18T07:16:43;11.20;;;5.80;;
57889;SDS011;43707;50.184;18.966;2022-10-18T07:19:08;10.40;;;5.90;;
57889;SDS011;43707;50.184;18.966;2022-10-18T07:21:34;9.30;;;5.60;;
57889;SDS011;43707;50.184;18.966;2022-10-18T07:23:59;7.10;;;5.40;;
57889;SDS011;43707;50.184;18.966;2022-10-18T07:28:52;6.90;;;4.70;;
57889;SDS011;43707;50.184;18.966;2022-10-18T07:31:20;9.20;;;5.30;;
57889;SDS011;43707;50.184;18.966;2022-10-18T07:33:46;14.10;;;6.00;;
57889;SDS011;43707;50.184;18.966;2022-10-18T07:36:12;11.20;;;6.40;;
57889;SDS011;43707;50.184;18.966;2022-10-18T07:38:38;15.30;;;7.80;;
57889;SDS011;43707;50.184;18.966;2022-10-18T07:41:04;12.00;;;8.30;;
57889;SDS011;43707;50.184;18.966;2022-10-18T07:43:31;13.70;;;8.90;;
57889;SDS011;43707;50.184;18.966;2022-10-18T07:45:57;14.40;;;9.30;;
57889;SDS011;43707;50.184;18.966;2022-10-18T07:48:24;13.20;;;8.00;;
57889;SDS011;43707;50.184;18.966;2022-10-18T07:50:50;11.00;;;7.60;;
57889;SDS011;43707;50.184;18.966;2022-10-18T07:53:16;9.80;;;6.80;;
57889;SDS011;43707;50.184;18.966;2022-10-18T07:55:41;10.60;;;7.00;;
57889;SDS011;43707;50.184;18.966;2022-10-18T07:58:07;9.20;;;6.70;;
57889;SDS011;43707;50.184;18.966;2022-10-18T08:00:32;9.10;;;6.60;;
57889;SDS011;43707;50.184;18.966;2022-10-18T08:02:58;7.80;;;6.20;;
57889;SDS011;43707;50.184;18.966;2022-10-18T08:05:24;16.60;;;6.40;;
57889;SDS011;43707;50.184;18.966;2022-10-18T08:07:51;6.20;;;5.40;;
57889;SDS011;43707;50.184;18.966;2022-10-18T08:10:17;7.60;;;5.30;;
57889;SDS011;43707;50.184;18.966;2022-10-18T08:12:43;8.00;;;4.60;;
57889;SDS011;43707;50.184;18.966;2022-10-18T08:15:09;10.50;;;6.80;;
57889;SDS011;43707;50.184;18.966;2022-10-18T08:17:34;14.90;;;6.00;;
57889;SDS011;43707;50.184;18.966;2022-10-18T08:20:00;10.50;;;5.70;;
57889;SDS011;43707;50.184;18.966;2022-10-18T08:22:25;10.10;;;5.30;;
57889;SDS011;43707;50.184;18.966;2022-10-18T08:24:51;7.30;;;4.70;;
57889;SDS011;43707;50.184;18.966;2022-10-18T08:27:16;7.30;;;5.20;;
57889;SDS011;43707;50.184;18.966;2022-10-18T08:29:41;11.80;;;5.70;;
57889;SDS011;43707;50.184;18.966;2022-10-18T08:32:07;11.10;;;5.60;;
57889;SDS011;43707;50.184;18.966;2022-10-18T08:34:33;8.10;;;5.30;;
57889;SDS011;43707;50.184;18.966;2022-10-18T08:36:59;8.20;;;5.50;;
57889;SDS011;43707;50.184;18.966;2022-10-18T08:39:25;9.40;;;5.70;;
57889;SDS011;43707;50.184;18.966;2022-10-18T08:41:54;5.90;;;4.90;;
57889;SDS011;43707;50.184;18.966;2022-10-18T08:44:24;11.80;;;6.30;;
57889;SDS011;43707;50.184;18.966;2022-10-18T08:46:57;9.60;;;5.30;;
57889;SDS011;43707;50.184;18.966;2022-10-18T08:49:41;12.70;;;5.40;;
57889;SDS011;43707;50.184;18.966;2022-10-18T08:52:12;7.50;;;6.00;;
57889;SDS011;43707;50.184;18.966;2022-10-18T08:57:24;13.30;;;6.00;;
57889;SDS011;43707;50.184;18.966;2022-10-18T08:59:50;14.80;;;6.30;;
57889;SDS011;43707;50.184;18.966;2022-10-18T09:16:15;7.30;;;5.80;;
57889;SDS011;43707;50.184;18.966;2022-10-18T09:20:58;20.10;;;6.70;;
57889;SDS011;43707;50.184;18.966;2022-10-18T09:26:06;13.40;;;6.20;;
57889;SDS011;43707;50.184;18.966;2022-10-18T09:34:04;13.00;;;5.70;;
57889;SDS011;43707;50.184;18.966;2022-10-18T09:36:33;8.50;;;5.50;;
57889;SDS011;43707;50.184;18.966;2022-10-18T09:39:09;8.80;;;5.40;;
57889;SDS011;43707;50.184;18.966;2022-10-18T09:44:23;9.40;;;5.60;;
57889;SDS011;43707;50.184;18.966;2022-10-18T09:47:12;8.10;;;6.30;;
57889;SDS011;43707;50.184;18.966;2022-10-18T09:49:41;11.40;;;4.90;;
57889;SDS011;43707;50.184;18.966;2022-10-18T09:52:12;5.10;;;4.30;;
57889;SDS011;43707;50.184;18.966;2022-10-18T09:54:45;5.40;;;4.60;;
57889;SDS011;43707;50.184;18.966;2022-10-18T09:57:19;6.00;;;4.90;;
57889;SDS011;43707;50.184;18.966;2022-10-18T09:59:48;9.50;;;4.90;;
57889;SDS011;43707;50.184;18.966;2022-10-18T10:02:16;11.00;;;4.80;;
57889;SDS011;43707;50.184;18.966;2022-10-18T10:04:43;7.50;;;5.60;;
57889;SDS011;43707;50.184;18.966;2022-10-18T10:07:27;12.20;;;5.30;;
57889;SDS011;43707;50.184;18.966;2022-10-18T10:10:04;9.60;;;5.40;;
57889;SDS011;43707;50.184;18.966;2022-10-18T10:12:35;7.70;;;4.80;;
57889;SDS011;43707;50.184;18.966;2022-10-18T10:15:21;7.80;;;4.90;;
57889;SDS011;43707;50.184;18.966;2022-10-18T10:17:56;8.70;;;5.00;;
57889;SDS011;43707;50.184;18.966;2022-10-18T10:20:42;6.60;;;5.20;;
57889;SDS011;43707;50.184;18.966;2022-10-18T10:28:35;11.30;;;5.20;;
57889;SDS011;43707;50.184;18.966;2022-10-18T10:31:26;10.70;;;6.20;;
57889;SDS011;43707;50.184;18.966;2022-10-18T10:33:58;11.80;;;5.40;;
57889;SDS011;43707;50.184;18.966;2022-10-18T10:36:29;8.90;;;4.80;;
57889;SDS011;43707;50.184;18.966;2022-10-18T10:41:37;12.20;;;5.90;;
57889;SDS011;43707;50.184;18.966;2022-10-18T10:44:12;9.80;;;5.40;;
57889;SDS011;43707;50.184;18.966;2022-10-18T10:46:39;11.80;;;4.80;;
57889;SDS011;43707;50.184;18.966;2022-10-18T10:49:05;10.60;;;5.20;;
57889;SDS011;43707;50.184;18.966;2022-10-18T10:51:35;10.40;;;5.40;;
57889;SDS011;43707;50.184;18.966;2022-10-18T10:54:03;5.40;;;4.10;;
57889;SDS011;43707;50.184;18.966;2022-10-18T10:59:15;10.30;;;3.60;;
57889;SDS011;43707;50.184;18.966;2022-10-18T11:01:42;7.10;;;4.40;;
57889;SDS011;43707;50.184;18.966;2022-10-18T11:04:25;6.10;;;3.40;;
57889;SDS011;43707;50.184;18.966;2022-10-18T11:18:09;8.80;;;4.10;;
57889;SDS011;43707;50.184;18.966;2022-10-18T11:23:20;11.10;;;4.00;;
57889;SDS011;43707;50.184;18.966;2022-10-18T11:26:07;11.10;;;3.70;;
57889;SDS011;43707;50.184;18.966;2022-10-18T11:53:40;11.10;;;3.90;;
57889;SDS011;43707;50.184;18.966;2022-10-18T11:56:23;7.40;;;3.80;;
57889;SDS011;43707;50.184;18.966;2022-10-18T12:01:56;5.60;;;4.00;;
57889;SDS011;43707;50.184;18.966;2022-10-18T12:04:34;4.00;;;3.50;;
57889;SDS011;43707;50.184;18.966;2022-10-18T12:07:01;4.70;;;3.50;;
57889;SDS011;43707;50.184;18.966;2022-10-18T12:12:06;12.40;;;3.70;;
57889;SDS011;43707;50.184;18.966;2022-10-18T12:17:19;8.50;;;4.10;;
57889;SDS011;43707;50.184;18.966;2022-10-18T12:19:49;10.80;;;3.90;;
57889;SDS011;43707;50.184;18.966;2022-10-18T12:22:21;5.70;;;4.20;;
57889;SDS011;43707;50.184;18.966;2022-10-18T12:24:50;6.90;;;3.90;;
57889;SDS011;43707;50.184;18.966;2022-10-18T12:27:15;7.40;;;3.60;;
57889;SDS011;43707;50.184;18.966;2022-10-18T12:32:10;6.30;;;3.70;;
57889;SDS011;43707;50.184;18.966;2022-10-18T12:34:42;7.60;;;4.50;;
57889;SDS011;43707;50.184;18.966;2022-10-18T12:42:23;3.70;;;3.10;;
57889;SDS011;43707;50.184;18.966;2022-10-18T12:45:05;6.50;;;4.20;;
57889;SDS011;43707;50.184;18.966;2022-10-18T12:47:54;5.70;;;3.30;;
57889;SDS011;43707;50.184;18.966;2022-10-18T12:50:36;4.40;;;3.90;;
57889;SDS011;43707;50.184;18.966;2022-10-18T12:55:35;6.70;;;4.70;;
57889;SDS011;43707;50.184;18.966;2022-10-18T12:58:04;7.00;;;3.50;;
57889;SDS011;43707;50.184;18.966;2022-10-18T13:00:51;5.90;;;3.80;;
57889;SDS011;43707;50.184;18.966;2022-10-18T13:11:12;9.50;;;4.20;;
57889;SDS011;43707;50.184;18.966;2022-10-18T13:13:56;8.20;;;4.20;;
57889;SDS011;43707;50.184;18.966;2022-10-18T13:19:28;7.00;;;4.00;;
57889;SDS011;43707;50.184;18.966;2022-10-18T13:30:08;6.70;;;3.70;;
57889;SDS011;43707;50.184;18.966;2022-10-18T13:34:53;11.60;;;4.30;;
57889;SDS011;43707;50.184;18.966;2022-10-18T13:37:19;8.00;;;4.40;;
57889;SDS011;43707;50.184;18.966;2022-10-18T13:39:48;8.70;;;4.40;;
57889;SDS011;43707;50.184;18.966;2022-10-18T13:44:39;10.60;;;4.70;;
57889;SDS011;43707;50.184;18.966;2022-10-18T14:07:43;6.50;;;4.60;;
57889;SDS011;43707;50.184;18.966;2022-10-18T14:10:12;9.00;;;5.00;;
57889;SDS011;43707;50.184;18.966;2022-10-18T14:12:46;7.30;;;5.00;;
57889;SDS011;43707;50.184;18.966;2022-10-18T14:17:50;10.90;;;5.70;;
57889;SDS011;43707;50.184;18.966;2022-10-18T14:25:28;11.10;;;5.90;;
57889;SDS011;43707;50.184;18.966;2022-10-18T14:30:36;12.80;;;6.00;;
57889;SDS011;43707;50.184;18.966;2022-10-18T14:33:02;11.30;;;5.70;;
57889;SDS011;43707;50.184;18.966;2022-10-18T14:35:31;11.70;;;5.20;;
57889;SDS011;43707;50.184;18.966;2022-10-18T14:37:59;12.20;;;5.60;;
57889;SDS011;43707;50.184;18.966;2022-10-18T14:40:36;7.70;;;4.80;;
57889;SDS011;43707;50.184;18.966;2022-10-18T14:43:21;9.80;;;6.40;;
57889;SDS011;43707;50.184;18.966;2022-10-18T14:45:46;11.30;;;5.90;;
57889;SDS011;43707;50.184;18.966;2022-10-18T14:48:16;12.70;;;5.60;;
57889;SDS011;43707;50.184;18.966;2022-10-18T14:50:46;15.10;;;5.60;;
57889;SDS011;43707;50.184;18.966;2022-10-18T14:53:17;8.10;;;5.60;;
57889;SDS011;43707;50.184;18.966;2022-10-18T14:55:53;9.80;;;5.50;;
57889;SDS011;43707;50.184;18.966;2022-10-18T14:58:21;8.10;;;5.20;;
57889;SDS011;43707;50.184;18.966;2022-10-18T15:00:47;9.00;;;5.60;;
57889;SDS011;43707;50.184;18.966;2022-10-18T15:03:13;7.00;;;5.20;;
57889;SDS011;43707;50.184;18.966;2022-10-18T15:06:00;8.20;;;6.00;;
57889;SDS011;43707;50.184;18.966;2022-10-18T15:08:46;9.20;;;5.90;;
57889;SDS011;43707;50.184;18.966;2022-10-18T15:11:15;13.00;;;5.60;;
57889;SDS011;43707;50.184;18.966;2022-10-18T15:13:44;9.00;;;5.80;;
57889;SDS011;43707;50.184;18.966;2022-10-18T15:16:18;8.20;;;6.50;;
57889;SDS011;43707;50.184;18.966;2022-10-18T15:18:58;9.00;;;6.10;;
57889;SDS011;43707;50.184;18.966;2022-10-18T15:21:25;12.20;;;6.50;;
57889;SDS011;43707;50.184;18.966;2022-10-18T15:23:51;11.90;;;6.50;;
57889;SDS011;43707;50.184;18.966;2022-10-18T15:26:27;8.00;;;6.20;;
57889;SDS011;43707;50.184;18.966;2022-10-18T15:28:54;12.30;;;6.30;;
57889;SDS011;43707;50.184;18.966;2022-10-18T15:33:51;11.60;;;5.60;;
57889;SDS011;43707;50.184;18.966;2022-10-18T15:36:28;14.70;;;6.80;;
57889;SDS011;43707;50.184;18.966;2022-10-18T15:39:11;12.10;;;6.80;;
57889;SDS011;43707;50.184;18.966;2022-10-18T15:41:49;9.30;;;6.10;;
57889;SDS011;43707;50.184;18.966;2022-10-18T15:54:49;7.30;;;6.10;;
57889;SDS011;43707;50.184;18.966;2022-10-18T15:57:15;10.00;;;5.80;;
57889;SDS011;43707;50.184;18.966;2022-10-18T15:59:50;14.20;;;7.80;;
57889;SDS011;43707;50.184;18.966;2022-10-18T16:02:17;14.10;;;8.40;;
57889;SDS011;43707;50.184;18.966;2022-10-18T16:04:43;145.00;;;56.70;;
57889;SDS011;43707;50.184;18.966;2022-10-18T16:07:10;283.70;;;111.90;;
57889;SDS011;43707;50.184;18.966;2022-10-18T16:09:36;96.10;;;40.40;;
57889;SDS011;43707;50.184;18.966;2022-10-18T16:12:02;102.70;;;47.50;;
57889;SDS011;43707;50.184;18.966;2022-10-18T16:14:28;508.00;;;270.50;;
57889;SDS011;43707;50.184;18.966;2022-10-18T16:16:57;435.10;;;192.00;;
57889;SDS011;43707;50.184;18.966;2022-10-18T16:19:24;462.10;;;211.30;;
57889;SDS011;43707;50.184;18.966;2022-10-18T16:21:50;259.20;;;99.20;;
57889;SDS011;43707;50.184;18.966;2022-10-18T16:24:17;243.80;;;94.90;;
57889;SDS011;43707;50.184;18.966;2022-10-18T16:26:42;155.20;;;57.20;;
57889;SDS011;43707;50.184;18.966;2022-10-18T16:29:15;113.20;;;40.50;;
57889;SDS011;43707;50.184;18.966;2022-10-18T16:31:48;83.30;;;33.10;;
57889;SDS011;43707;50.184;18.966;2022-10-18T16:34:16;63.30;;;26.10;;
57889;SDS011;43707;50.184;18.966;2022-10-18T16:36:42;61.60;;;29.50;;
57889;SDS011;43707;50.184;18.966;2022-10-18T16:39:12;39.50;;;19.20;;
57889;SDS011;43707;50.184;18.966;2022-10-18T16:41:39;45.70;;;19.90;;
57889;SDS011;43707;50.184;18.966;2022-10-18T16:44:06;43.90;;;18.60;;
57889;SDS011;43707;50.184;18.966;2022-10-18T16:46:33;25.80;;;13.80;;
57889;SDS011;43707;50.184;18.966;2022-10-18T16:48:59;41.10;;;20.40;;
57889;SDS011;43707;50.184;18.966;2022-10-18T16:51:25;29.80;;;17.40;;
57889;SDS011;43707;50.184;18.966;2022-10-18T16:53:51;59.90;;;25.80;;
57889;SDS011;43707;50.184;18.966;2022-10-18T16:56:19;32.70;;;17.40;;
57889;SDS011;43707;50.184;18.966;2022-10-18T16:58:49;24.90;;;14.00;;
57889;SDS011;43707;50.184;18.966;2022-10-18T17:01:17;24.10;;;16.20;;
57889;SDS011;43707;50.184;18.966;2022-10-18T17:03:44;20.70;;;13.90;;
57889;SDS011;43707;50.184;18.966;2022-10-18T17:06:18;18.40;;;12.40;;
57889;SDS011;43707;50.184;18.966;2022-10-18T17:08:44;19.40;;;13.20;;
57889;SDS011;43707;50.184;18.966;2022-10-18T17:11:11;26.60;;;18.80;;
57889;SDS011;43707;50.184;18.966;2022-10-18T17:13:37;27.30;;;15.90;;
57889;SDS011;43707;50.184;18.966;2022-10-18T17:16:03;16.30;;;12.60;;
57889;SDS011;43707;50.184;18.966;2022-10-18T17:18:29;16.40;;;12.30;;
57889;SDS011;43707;50.184;18.966;2022-10-18T17:20:56;13.70;;;10.10;;
57889;SDS011;43707;50.184;18.966;2022-10-18T17:23:25;10.50;;;8.20;;
57889;SDS011;43707;50.184;18.966;2022-10-18T17:25:51;16.20;;;9.40;;
57889;SDS011;43707;50.184;18.966;2022-10-18T17:28:18;11.40;;;9.10;;
57889;SDS011;43707;50.184;18.966;2022-10-18T17:30:44;13.80;;;10.00;;
57889;SDS011;43707;50.184;18.966;2022-10-18T17:33:10;13.90;;;9.40;;
57889;SDS011;43707;50.184;18.966;2022-10-18T17:35:37;14.20;;;9.20;;
57889;SDS011;43707;50.184;18.966;2022-10-18T17:38:03;15.50;;;9.40;;
57889;SDS011;43707;50.184;18.966;2022-10-18T17:40:32;12.60;;;9.80;;
57889;SDS011;43707;50.184;18.966;2022-10-18T17:42:59;11.90;;;9.10;;